Time;durP1;ratioP1;P1;durP2;ratioP2;P2;SDS_P1;SDS_P2;PMS_P1;PMS_P2;Temp;Humidity;BMP_temperature;BMP_pressure;BME280_temperature;BME280_humidity;BME280_pressure;Samples;Min_cycle;Max_cycle;Signal;HPM_P1;HPM_P2
2023/07/14 00:02:04;;;;;;;11.52;6.70;;;26.40;95.50;;;;;;4898279;29;20040;-78
2023/07/14 00:04:42;;;;;;;13.57;6.97;;;26.40;95.50;;;;;;4881533;29;20428;-78
2023/07/14 00:07:13;;;;;;;15.68;6.28;;;26.50;95.20;;;;;;4877724;29;20064;-77
2023/07/14 00:09:42;;;;;;;13.57;6.45;;;26.60;95.20;;;;;;4878638;29;20203;-76
2023/07/14 00:12:10;;;;;;;11.30;6.77;;;26.60;95.30;;;;;;4863127;29;20136;-77
2023/07/14 00:14:37;;;;;;;12.05;7.32;;;26.60;95.50;;;;;;4879007;29;20045;-78
2023/07/14 00:17:12;;;;;;;12.40;7.00;;;26.50;95.60;;;;;;4880414;29;20405;-75
2023/07/14 00:19:40;;;;;;;14.57;6.28;;;26.50;95.60;;;;;;4878882;29;20052;-74
2023/07/14 00:22:14;;;;;;;12.75;6.57;;;26.10;95.80;;;;;;4898704;29;20044;-78
2023/07/14 00:24:42;;;;;;;18.50;7.00;;;25.90;96.00;;;;;;4865268;29;20421;-77
2023/07/14 00:27:20;;;;;;;13.93;6.22;;;25.70;95.80;;;;;;4890360;29;20051;-76
2023/07/14 00:29:49;;;;;;;13.50;7.10;;;25.40;96.10;;;;;;4889242;29;20052;-77
2023/07/14 00:32:19;;;;;;;11.00;5.80;;;25.20;96.80;;;;;;4880233;29;20049;-75
2023/07/14 00:34:47;;;;;;;12.48;6.25;;;24.80;97.70;;;;;;4889999;29;20048;-77
2023/07/14 00:37:15;;;;;;;15.25;6.55;;;24.80;97.80;;;;;;4865362;29;20544;-79
2023/07/14 00:39:43;;;;;;;11.50;6.00;;;24.80;97.90;;;;;;4884887;29;20163;-76
2023/07/14 00:42:13;;;;;;;11.10;6.28;;;25.20;97.80;;;;;;4899836;29;20044;-77
2023/07/14 00:44:40;;;;;;;10.75;6.05;;;25.60;97.00;;;;;;4899682;29;20515;-73
2023/07/14 00:47:29;;;;;;;9.27;6.70;;;25.80;96.60;;;;;;4879729;29;20573;-76
2023/07/14 00:49:59;;;;;;;13.65;7.28;;;25.80;96.50;;;;;;4876489;29;20041;-76
2023/07/14 00:52:36;;;;;;;11.65;6.50;;;25.80;96.70;;;;;;4903056;29;20040;-76
2023/07/14 00:55:28;;;;;;;13.20;7.05;;;25.80;96.80;;;;;;4868387;29;20068;-75
2023/07/14 00:57:56;;;;;;;14.52;6.72;;;25.80;96.90;;;;;;4897107;29;20067;-75
2023/07/14 01:00:31;;;;;;;11.55;6.50;;;25.60;97.10;;;;;;4861951;29;20056;-77
2023/07/14 01:03:03;;;;;;;11.90;6.47;;;25.60;97.20;;;;;;4893194;29;20515;-77
2023/07/14 01:05:31;;;;;;;12.90;6.38;;;25.60;97.10;;;;;;4880817;29;20419;-76
2023/07/14 01:07:59;;;;;;;14.00;7.80;;;25.70;97.50;;;;;;4878856;29;20092;-76
2023/07/14 01:10:28;;;;;;;12.65;7.25;;;25.70;97.60;;;;;;4891674;29;20148;-77
2023/07/14 01:13:01;;;;;;;11.75;6.80;;;25.60;97.90;;;;;;4874813;29;20449;-75
2023/07/14 01:15:28;;;;;;;13.20;6.43;;;25.40;97.80;;;;;;4875836;29;20401;-77
2023/07/14 01:17:56;;;;;;;12.90;6.63;;;25.50;98.20;;;;;;4880553;29;20064;-78
2023/07/14 01:20:24;;;;;;;16.23;6.63;;;25.60;98.20;;;;;;4881405;29;20560;-80
2023/07/14 01:22:59;;;;;;;12.05;7.13;;;25.50;98.00;;;;;;4883116;29;20044;-80
2023/07/14 01:26:07;;;;;;;14.13;8.32;;;25.60;98.20;;;;;;4907660;29;20064;-79
2023/07/14 01:28:34;;;;;;;15.80;7.53;;;25.60;98.30;;;;;;4888620;29;20044;-77
2023/07/14 01:31:02;;;;;;;11.05;6.57;;;25.30;98.80;;;;;;4897304;29;20068;-79
2023/07/14 01:33:41;;;;;;;14.23;7.03;;;25.10;99.20;;;;;;4880664;29;20052;-80
2023/07/14 01:36:08;;;;;;;12.50;7.10;;;25.30;99.10;;;;;;4898026;29;20463;-78
2023/07/14 01:38:38;;;;;;;14.82;6.90;;;25.40;99.10;;;;;;4900589;29;20058;-78
2023/07/14 01:41:07;;;;;;;12.50;6.20;;;25.30;99.20;;;;;;4897549;29;20075;-78
2023/07/14 01:43:36;;;;;;;10.95;6.70;;;25.40;99.30;;;;;;4868544;29;20446;-80
2023/07/14 01:46:07;;;;;;;14.50;7.00;;;25.10;99.50;;;;;;4870310;29;20446;-80
2023/07/14 01:48:48;;;;;;;16.38;7.80;;;24.90;99.90;;;;;;4883352;29;20044;-78
2023/07/14 01:51:16;;;;;;;18.13;6.97;;;24.90;99.90;;;;;;4907046;29;20450;-79
2023/07/14 01:54:09;;;;;;;15.57;6.72;;;25.00;99.90;;;;;;4885134;29;20033;-77
2023/07/14 01:56:38;;;;;;;14.50;6.97;;;25.30;99.90;;;;;;4906342;29;20067;-78
2023/07/14 01:59:20;;;;;;;11.52;6.20;;;25.30;99.90;;;;;;4904200;29;20064;-76
2023/07/14 02:01:50;;;;;;;14.55;6.90;;;25.20;99.90;;;;;;4882782;29;20051;-78
2023/07/14 02:04:20;;;;;;;;;;;25.00;99.90;;;;;;4880902;29;20043;-77
2023/07/14 02:06:48;;;;;;;14.35;7.35;;;24.90;99.90;;;;;;4880421;29;20367;-78
2023/07/14 02:09:23;;;;;;;12.13;6.97;;;25.00;99.90;;;;;;4897717;29;20051;-77
2023/07/14 02:12:01;;;;;;;14.43;6.32;;;25.00;99.90;;;;;;4868839;29;20513;-79
2023/07/14 02:14:40;;;;;;;15.02;6.53;;;25.10;99.90;;;;;;4881526;29;20512;-79
2023/07/14 02:17:24;;;;;;;11.60;6.18;;;25.00;99.90;;;;;;4881474;29;20101;-79
2023/07/14 02:19:54;;;;;;;14.73;6.80;;;24.90;99.90;;;;;;4865968;29;20049;-78
2023/07/14 02:22:23;;;;;;;14.25;6.28;;;24.80;99.90;;;;;;4866042;29;20041;-80
2023/07/14 02:24:52;;;;;;;11.15;6.50;;;24.80;99.90;;;;;;4887313;29;20059;-79
2023/07/14 02:27:20;;;;;;;13.70;6.47;;;24.70;99.90;;;;;;4900143;29;20441;-76
2023/07/14 02:29:47;;;;;;;10.52;6.22;;;24.60;99.90;;;;;;4900186;29;20036;-79
2023/07/14 02:32:26;;;;;;;12.48;5.85;;;24.40;99.90;;;;;;4870494;29;20520;-77
2023/07/14 02:35:09;;;;;;;15.68;6.38;;;24.40;99.90;;;;;;4881736;29;20045;-78
2023/07/14 02:38:02;;;;;;;13.10;6.38;;;24.30;99.90;;;;;;4866471;29;20041;-79
2023/07/14 02:40:42;;;;;;;10.95;6.20;;;24.20;99.90;;;;;;4902799;29;20075;-78
2023/07/14 02:43:13;;;;;;;11.85;6.15;;;24.30;99.90;;;;;;4883353;29;20441;-79
2023/07/14 02:45:59;;;;;;;12.27;6.20;;;24.40;99.90;;;;;;4901034;29;20049;-78
2023/07/14 02:48:42;;;;;;;11.55;6.28;;;24.20;99.90;;;;;;4899581;29;20037;-77
2023/07/14 02:51:11;;;;;;;14.00;6.88;;;24.10;99.90;;;;;;4865999;29;20132;-78
2023/07/14 02:53:39;;;;;;;13.82;6.90;;;24.30;99.90;;;;;;4883319;29;20501;-76
2023/07/14 02:56:06;;;;;;;10.38;6.72;;;24.20;99.90;;;;;;4883457;29;20049;-76
2023/07/14 02:58:36;;;;;;;12.00;6.75;;;24.10;99.90;;;;;;4899648;29;20397;-78
2023/07/14 03:01:04;;;;;;;10.73;6.82;;;24.00;99.90;;;;;;4883707;29;20408;-78
2023/07/14 03:03:33;;;;;;;12.32;6.28;;;24.10;99.90;;;;;;4882548;29;20369;-77
2023/07/14 03:06:01;;;;;;;13.77;6.07;;;24.30;99.90;;;;;;4883197;29;20041;-77
2023/07/14 03:08:29;;;;;;;12.30;6.50;;;24.40;99.90;;;;;;4882291;29;20052;-76
2023/07/14 03:10:58;;;;;;;14.85;6.50;;;24.50;99.90;;;;;;4898847;29;20548;-76
2023/07/14 03:13:26;;;;;;;10.52;6.18;;;24.40;99.90;;;;;;4898351;29;20125;-76
2023/07/14 03:15:53;;;;;;;14.88;6.40;;;24.40;99.90;;;;;;4898375;29;20040;-76
2023/07/14 03:18:21;;;;;;;12.93;6.32;;;24.50;99.90;;;;;;4896000;29;20107;-77
2023/07/14 03:20:54;;;;;;;14.75;6.18;;;24.50;99.90;;;;;;4907773;29;20053;-77
2023/07/14 03:23:21;;;;;;;13.55;6.75;;;24.50;99.90;;;;;;4891121;29;20427;-78
2023/07/14 03:26:00;;;;;;;11.02;6.57;;;24.60;99.90;;;;;;4898927;29;20048;-78
2023/07/14 03:28:29;;;;;;;9.50;5.95;;;24.60;99.90;;;;;;4898529;29;20048;-79
2023/07/14 03:30:56;;;;;;;12.15;6.15;;;24.50;99.90;;;;;;4880851;29;20047;-78
2023/07/14 03:33:24;;;;;;;18.67;6.53;;;24.50;99.90;;;;;;4884761;29;20389;-79
2023/07/14 03:35:51;;;;;;;21.13;8.93;;;24.50;99.90;;;;;;4883996;29;20100;-78
2023/07/14 03:38:18;;;;;;;12.48;6.38;;;24.40;99.90;;;;;;4882304;29;20072;-77
2023/07/14 03:40:46;;;;;;;13.20;6.15;;;24.30;99.90;;;;;;4884543;29;20127;-78
2023/07/14 03:43:13;;;;;;;10.40;5.95;;;24.30;99.90;;;;;;4866653;29;20086;-76
2023/07/14 03:45:41;;;;;;;14.18;5.95;;;24.30;99.90;;;;;;4882724;29;20552;-80
2023/07/14 03:48:08;;;;;;;10.52;6.53;;;24.40;99.90;;;;;;4870081;29;20457;-77
2023/07/14 03:50:37;;;;;;;14.27;6.70;;;24.40;99.90;;;;;;4883801;29;20064;-78
2023/07/14 03:53:05;;;;;;;11.75;6.65;;;24.40;99.90;;;;;;4901202;29;20127;-77
2023/07/14 03:55:33;;;;;;;12.20;7.38;;;24.40;99.90;;;;;;4901157;29;20033;-79
2023/07/14 03:58:00;;;;;;;12.73;6.32;;;24.50;99.90;;;;;;4901084;29;20048;-78
2023/07/14 04:00:31;;;;;;;14.27;6.97;;;24.60;99.90;;;;;;4871313;29;20743;-78
2023/07/14 04:03:00;;;;;;;12.88;7.10;;;24.70;99.90;;;;;;4885242;29;20048;-79
2023/07/14 04:05:28;;;;;;;10.88;6.60;;;24.40;99.90;;;;;;4884670;29;20104;-76
2023/07/14 04:07:55;;;;;;;15.55;7.82;;;24.40;99.90;;;;;;4899249;29;20041;-78
2023/07/14 04:10:22;;;;;;;13.68;7.35;;;24.30;99.90;;;;;;4898871;29;20434;-76
2023/07/14 04:12:50;;;;;;;16.35;7.72;;;24.20;99.90;;;;;;4897970;29;20463;-77
2023/07/14 04:15:19;;;;;;;14.52;7.45;;;24.30;99.90;;;;;;4907080;29;20055;-77
2023/07/14 04:17:46;;;;;;;14.25;7.90;;;24.30;99.90;;;;;;4900795;29;20065;-77
2023/07/14 04:20:14;;;;;;;11.15;6.95;;;24.30;99.90;;;;;;4898047;29;20052;-77
2023/07/14 04:22:43;;;;;;;15.20;7.88;;;24.40;99.90;;;;;;4897350;29;20040;-77
2023/07/14 04:25:11;;;;;;;14.27;7.55;;;24.30;99.90;;;;;;4898676;29;20120;-78
2023/07/14 04:27:38;;;;;;;22.30;8.57;;;24.40;99.90;;;;;;4897783;29;20044;-78
2023/07/14 04:30:08;;;;;;;12.10;7.78;;;24.50;99.90;;;;;;4898069;29;20045;-78
2023/07/14 04:32:36;;;;;;;14.98;7.13;;;24.40;99.90;;;;;;4903659;29;20056;-78
2023/07/14 04:35:04;;;;;;;17.05;8.75;;;24.70;99.90;;;;;;4885815;29;20101;-79
2023/07/14 04:37:31;;;;;;;19.40;7.35;;;25.00;99.90;;;;;;4883419;29;20108;-75
2023/07/14 04:39:59;;;;;;;20.60;9.52;;;24.80;99.90;;;;;;4899838;29;20048;-77
2023/07/14 04:42:27;;;;;;;16.90;8.15;;;24.80;99.90;;;;;;4897003;29;20370;-77
2023/07/14 04:44:54;;;;;;;13.13;7.50;;;24.80;99.90;;;;;;4876569;29;20043;-75
2023/07/14 04:47:21;;;;;;;19.73;11.45;;;24.80;99.90;;;;;;4883668;29;20059;-74
2023/07/14 04:49:49;;;;;;;84.07;55.67;;;24.80;99.90;;;;;;4880775;29;20087;-77
2023/07/14 04:52:16;;;;;;;131.85;76.65;;;24.90;99.90;;;;;;4880634;29;20123;-77
2023/07/14 04:54:44;;;;;;;54.30;32.65;;;25.00;99.90;;;;;;4880042;29;20396;-75
2023/07/14 04:57:11;;;;;;;25.52;14.88;;;25.00;99.90;;;;;;4881326;29;20127;-76
2023/07/14 04:59:43;;;;;;;20.25;11.27;;;25.10;99.90;;;;;;4898315;29;20037;-76
2023/07/14 05:02:10;;;;;;;16.73;9.63;;;25.10;99.90;;;;;;4875570;29;20417;-76
2023/07/14 05:04:41;;;;;;;63.50;42.10;;;25.10;99.90;;;;;;4899104;29;20112;-78
2023/07/14 05:07:26;;;;;;;158.27;109.22;;;25.10;99.90;;;;;;4887803;29;20112;-76
2023/07/14 05:09:54;;;;;;;46.63;32.55;;;25.20;99.90;;;;;;4871685;29;20465;-78
2023/07/14 05:12:21;;;;;;;23.90;15.05;;;25.20;99.90;;;;;;4878142;29;20055;-77
2023/07/14 05:14:49;;;;;;;24.30;12.05;;;25.30;99.90;;;;;;4881793;29;20048;-76
2023/07/14 05:17:17;;;;;;;18.23;9.75;;;25.40;99.90;;;;;;4887988;29;20075;-76
2023/07/14 05:19:44;;;;;;;18.25;12.13;;;25.30;99.90;;;;;;4897799;29;20095;-77
2023/07/14 05:22:11;;;;;;;39.97;26.88;;;25.40;99.90;;;;;;4897652;29;20040;-76
2023/07/14 05:24:39;;;;;;;75.43;51.42;;;25.40;99.90;;;;;;4886520;29;20040;-77
2023/07/14 05:27:06;;;;;;;74.75;54.10;;;25.30;99.90;;;;;;4894308;29;20402;-80
2023/07/14 05:29:33;;;;;;;22.65;14.77;;;25.20;99.90;;;;;;4880654;29;20037;-76
2023/07/14 05:32:01;;;;;;;20.77;10.50;;;25.30;99.90;;;;;;4880335;29;20052;-75
2023/07/14 05:34:28;;;;;;;24.73;10.27;;;25.00;99.90;;;;;;4883687;29;20055;-73
2023/07/14 05:36:55;;;;;;;21.23;10.95;;;25.10;99.90;;;;;;4880421;29;20465;-74
2023/07/14 05:39:26;;;;;;;17.50;10.85;;;25.00;99.90;;;;;;4906674;29;20046;-75
2023/07/14 05:41:53;;;;;;;24.60;9.73;;;24.80;99.90;;;;;;4894314;29;20082;-74
2023/07/14 05:44:21;;;;;;;22.00;11.40;;;25.00;99.90;;;;;;4882859;29;20087;-75
2023/07/14 05:46:55;;;;;;;24.35;12.25;;;25.30;99.90;;;;;;4883402;29;20048;-80
2023/07/14 05:49:22;;;;;;;26.88;12.02;;;25.40;99.90;;;;;;4864285;29;20053;-77
2023/07/14 05:51:52;;;;;;;28.45;12.43;;;25.20;99.90;;;;;;4896303;29;20136;-78
2023/07/14 05:54:24;;;;;;;24.10;11.88;;;25.10;99.90;;;;;;4911984;29;20051;-76
2023/07/14 05:56:53;;;;;;;22.48;9.18;;;25.10;99.90;;;;;;4901088;29;20407;-78
2023/07/14 05:59:21;;;;;;;18.50;9.65;;;25.40;99.90;;;;;;4885334;29;20124;-78
2023/07/14 06:01:49;;;;;;;17.35;8.88;;;25.30;99.90;;;;;;4882958;29;20497;-77
2023/07/14 06:04:17;;;;;;;17.55;9.70;;;25.30;99.90;;;;;;4901455;29;20041;-75
2023/07/14 06:06:46;;;;;;;16.40;8.85;;;25.40;99.90;;;;;;4890103;29;20049;-79
2023/07/14 06:09:24;;;;;;;15.38;8.82;;;25.40;99.90;;;;;;4905661;29;20040;-76
2023/07/14 06:11:54;;;;;;;18.98;8.43;;;25.70;99.90;;;;;;4906367;29;20072;-77
2023/07/14 06:14:26;;;;;;;16.40;8.88;;;25.70;99.90;;;;;;4891666;29;20059;-79
2023/07/14 06:16:54;;;;;;;14.30;8.18;;;26.00;99.90;;;;;;4870385;29;20037;-77
2023/07/14 06:19:24;;;;;;;14.70;8.02;;;26.10;99.90;;;;;;4890399;29;20088;-76
2023/07/14 06:21:52;;;;;;;14.68;7.72;;;26.00;99.90;;;;;;4897546;29;20056;-76
2023/07/14 06:24:27;;;;;;;12.93;7.40;;;26.00;99.90;;;;;;4885952;29;20040;-77
2023/07/14 06:26:55;;;;;;;19.23;7.10;;;26.00;99.40;;;;;;4891279;29;20037;-78
2023/07/14 06:29:22;;;;;;;16.38;7.35;;;25.90;99.20;;;;;;4895870;29;20044;-76
2023/07/14 06:31:53;;;;;;;15.25;8.55;;;26.10;99.30;;;;;;4920799;29;20060;-78
2023/07/14 06:34:22;;;;;;;14.87;7.30;;;26.20;99.00;;;;;;4897777;29;20045;-75
2023/07/14 06:36:50;;;;;;;14.57;7.88;;;26.20;98.90;;;;;;4894524;29;20045;-78
2023/07/14 06:39:19;;;;;;;14.40;7.78;;;26.30;99.00;;;;;;4889504;29;20051;-76
2023/07/14 06:41:47;;;;;;;13.77;7.78;;;26.40;98.90;;;;;;4866841;29;20077;-75
2023/07/14 06:44:15;;;;;;;14.40;7.40;;;26.50;98.50;;;;;;4888962;29;20052;-77
2023/07/14 06:46:53;;;;;;;14.30;7.30;;;26.70;98.40;;;;;;4887312;29;20045;-77
2023/07/14 06:49:20;;;;;;;16.58;7.60;;;26.80;98.40;;;;;;4887025;29;20065;-77
2023/07/14 06:51:52;;;;;;;16.80;7.05;;;26.80;98.30;;;;;;4903034;29;20049;-77
2023/07/14 06:54:23;;;;;;;13.70;6.95;;;26.80;97.80;;;;;;4907310;29;20064;-75
2023/07/14 06:56:50;;;;;;;13.18;7.30;;;26.80;97.80;;;;;;4888693;29;20057;-76
2023/07/14 06:59:20;;;;;;;13.38;7.22;;;26.90;97.90;;;;;;4888789;29;20080;-77
2023/07/14 07:01:47;;;;;;;15.63;7.90;;;27.00;98.20;;;;;;4874622;29;20069;-78
2023/07/14 07:04:16;;;;;;;16.50;7.10;;;27.10;98.00;;;;;;4906284;29;20404;-77
2023/07/14 07:06:43;;;;;;;17.23;8.27;;;27.00;97.10;;;;;;4887157;29;20068;-76
2023/07/14 07:09:10;;;;;;;18.65;8.98;;;27.10;98.20;;;;;;4887397;29;20091;-77
2023/07/14 07:11:40;;;;;;;16.48;7.70;;;27.10;98.20;;;;;;4902815;29;20489;-75
2023/07/14 07:14:08;;;;;;;15.07;6.78;;;27.00;96.90;;;;;;4906315;29;20449;-76
2023/07/14 07:16:36;;;;;;;13.68;8.13;;;26.90;96.90;;;;;;4904175;29;20040;-77
2023/07/14 07:19:03;;;;;;;12.75;8.95;;;27.00;97.10;;;;;;4888174;29;20049;-76
2023/07/14 07:21:31;;;;;;;14.15;7.25;;;27.10;97.20;;;;;;4885289;29;20560;-76
2023/07/14 07:24:04;;;;;;;17.35;8.90;;;27.20;97.10;;;;;;4885225;29;20138;-75
2023/07/14 07:26:32;;;;;;;15.68;8.00;;;27.30;96.60;;;;;;4902581;29;20040;-76
2023/07/14 07:29:00;;;;;;;14.50;7.60;;;27.40;96.00;;;;;;4905131;29;20045;-77
2023/07/14 07:31:29;;;;;;;15.95;7.57;;;27.50;96.10;;;;;;4893996;29;20055;-77
2023/07/14 07:33:57;;;;;;;19.25;8.10;;;27.60;95.90;;;;;;4903905;29;20469;-78
2023/07/14 07:36:27;;;;;;;13.40;8.00;;;27.70;95.70;;;;;;4889596;29;20041;-76
2023/07/14 07:38:56;;;;;;;20.02;8.57;;;27.70;96.00;;;;;;4901546;29;20438;-76
2023/07/14 07:41:27;;;;;;;14.27;8.30;;;27.70;94.90;;;;;;4902965;29;20053;-76
2023/07/14 07:44:00;;;;;;;14.50;8.25;;;27.50;94.60;;;;;;4903943;29;20044;-78
2023/07/14 07:46:28;;;;;;;17.58;7.95;;;27.60;95.50;;;;;;4887058;29;20061;-76
2023/07/14 07:48:55;;;;;;;15.25;7.93;;;27.80;95.00;;;;;;4904679;29;20123;-77
2023/07/14 07:51:23;;;;;;;16.55;8.80;;;27.90;94.30;;;;;;4906540;29;20047;-77
2023/07/14 07:53:51;;;;;;;17.38;7.82;;;28.00;93.90;;;;;;4904644;29;20045;-78
2023/07/14 07:56:30;;;;;;;15.93;7.97;;;28.00;93.70;;;;;;4887070;29;20123;-77
2023/07/14 07:58:58;;;;;;;14.77;8.50;;;28.10;94.20;;;;;;4908652;29;20441;-76
2023/07/14 08:01:32;;;;;;;16.30;7.93;;;28.10;93.70;;;;;;4912622;29;20048;-78
2023/07/14 08:04:00;;;;;;;15.50;10.68;;;28.20;94.00;;;;;;4894385;29;20561;-76
2023/07/14 08:06:30;;;;;;;15.50;8.93;;;28.20;93.10;;;;;;4903885;29;20409;-78
2023/07/14 08:08:58;;;;;;;27.17;9.95;;;28.40;93.30;;;;;;4902441;29;20037;-75
2023/07/14 08:11:26;;;;;;;13.27;8.52;;;28.30;94.30;;;;;;4904373;29;20076;-76
2023/07/14 08:13:54;;;;;;;17.00;9.48;;;28.40;93.10;;;;;;4907000;29;20045;-78
2023/07/14 08:16:22;;;;;;;15.57;8.88;;;28.40;92.50;;;;;;4907009;29;20052;-77
2023/07/14 08:18:49;;;;;;;18.75;8.68;;;28.50;92.50;;;;;;4885442;29;20058;-75
2023/07/14 08:21:18;;;;;;;13.85;8.85;;;28.50;92.20;;;;;;4892340;29;20049;-77
2023/07/14 08:23:45;;;;;;;15.00;8.80;;;28.60;92.70;;;;;;4852263;29;20108;-78
2023/07/14 08:26:13;;;;;;;18.00;8.82;;;28.60;92.30;;;;;;4894063;29;20056;-78
2023/07/14 08:28:41;;;;;;;14.63;8.27;;;28.60;92.00;;;;;;4903334;29;20517;-76
2023/07/14 08:31:12;;;;;;;18.60;8.88;;;28.60;92.50;;;;;;4903236;29;20089;-78
2023/07/14 08:33:43;;;;;;;17.92;9.40;;;28.70;92.50;;;;;;4887047;29;20045;-75
2023/07/14 08:36:13;;;;;;;14.48;9.07;;;28.70;91.70;;;;;;4897909;29;20059;-78
2023/07/14 08:38:41;;;;;;;13.90;8.70;;;28.70;91.90;;;;;;4886341;29;20072;-75
2023/07/14 08:41:09;;;;;;;19.67;9.48;;;28.70;92.30;;;;;;4889774;29;20056;-76
2023/07/14 08:43:47;;;;;;;19.95;9.25;;;28.80;92.60;;;;;;4903759;29;20041;-75
2023/07/14 08:46:26;;;;;;;14.75;8.50;;;28.90;92.50;;;;;;4900132;29;20040;-77
2023/07/14 08:49:17;;;;;;;13.70;8.75;;;28.90;91.90;;;;;;4896754;29;20128;-76
2023/07/14 08:51:46;;;;;;;;;;;29.00;91.20;;;;;;4897676;29;20457;-77
2023/07/14 08:54:21;;;;;;;14.27;8.88;;;29.00;91.60;;;;;;4885345;29;19923;-77
2023/07/14 08:56:50;;;;;;;16.25;9.55;;;29.10;91.10;;;;;;4905426;29;20097;-75
2023/07/14 08:59:40;;;;;;;14.70;8.45;;;29.10;91.40;;;;;;4899957;29;20048;-77
2023/07/14 09:02:22;;;;;;;22.58;8.85;;;29.30;91.10;;;;;;4896306;29;20123;-76
2023/07/14 09:04:59;;;;;;;15.65;9.20;;;29.40;91.10;;;;;;4901697;29;20041;-75
2023/07/14 09:07:31;;;;;;;19.00;8.57;;;29.50;90.40;;;;;;4888338;29;20116;-77
2023/07/14 09:10:10;;;;;;;15.55;9.80;;;29.40;88.80;;;;;;4863225;29;20061;-77
2023/07/14 09:13:02;;;;;;;15.65;9.13;;;29.40;88.90;;;;;;4881896;29;20057;-80
2023/07/14 09:15:32;;;;;;;20.50;9.05;;;29.40;88.70;;;;;;4902643;29;20044;-76
2023/07/14 09:18:28;;;;;;;15.52;9.55;;;29.50;86.20;;;;;;4904819;29;20096;-77
2023/07/14 09:21:29;;;;;;;15.25;9.52;;;29.70;88.00;;;;;;4911838;29;20504;-77
2023/07/14 09:24:36;;;;;;;13.75;8.93;;;29.80;89.40;;;;;;4898184;29;20134;-75
2023/07/14 09:27:24;;;;;;;15.73;8.57;;;29.90;88.20;;;;;;4881479;29;20108;-77
2023/07/14 09:33:21;;;;;;;17.42;8.85;;;30.10;84.70;;;;;;4902494;29;19930;-76
2023/07/14 09:35:57;;;;;;;19.98;10.13;;;30.10;86.20;;;;;;4870511;29;20045;-74
2023/07/14 09:38:59;;;;;;;18.67;9.68;;;30.20;85.60;;;;;;4880788;29;20049;-76
2023/07/14 09:41:30;;;;;;;14.52;9.02;;;30.30;85.10;;;;;;4873729;29;20111;-78
2023/07/14 09:43:59;;;;;;;16.20;9.95;;;30.30;85.40;;;;;;4882863;29;20052;-75
2023/07/14 09:46:37;;;;;;;19.35;9.68;;;30.30;85.20;;;;;;4898976;29;20040;-78
2023/07/14 09:49:13;;;;;;;15.50;9.50;;;30.00;86.10;;;;;;4895402;29;20064;-78
2023/07/14 09:52:08;;;;;;;15.73;9.55;;;29.90;85.20;;;;;;4906234;29;20044;-75
2023/07/14 09:55:01;;;;;;;16.02;9.00;;;30.10;84.30;;;;;;4872566;29;20465;-76
2023/07/14 09:57:34;;;;;;;16.95;8.82;;;30.50;82.30;;;;;;4895217;29;20041;-76
2023/07/14 10:00:21;;;;;;;15.20;9.68;;;30.40;82.90;;;;;;4888341;29;20105;-74
2023/07/14 10:03:19;;;;;;;15.27;9.32;;;30.30;81.60;;;;;;4896994;29;20441;-76
2023/07/14 10:06:27;;;;;;;18.25;10.68;;;30.30;81.00;;;;;;4889328;29;20038;-75
2023/07/14 10:08:59;;;;;;;15.57;8.90;;;30.60;81.00;;;;;;4886303;29;20072;-75
2023/07/14 10:11:51;;;;;;;17.38;9.18;;;30.70;79.80;;;;;;4893876;29;20076;-76
2023/07/14 10:14:40;;;;;;;14.38;9.60;;;30.80;81.70;;;;;;4882595;29;20048;-74
2023/07/14 10:17:23;;;;;;;14.13;8.82;;;31.10;80.50;;;;;;4897678;29;20047;-75
2023/07/14 10:19:52;;;;;;;14.15;9.90;;;30.80;77.80;;;;;;4894511;29;20397;-77
2023/07/14 10:22:23;;;;;;;15.48;8.65;;;30.90;80.60;;;;;;4896349;29;20037;-74
2023/07/14 10:24:59;;;;;;;17.80;8.73;;;30.70;78.90;;;;;;4884984;29;20591;-75
2023/07/14 10:27:32;;;;;;;15.63;8.45;;;30.60;78.00;;;;;;4882771;29;20041;-78
2023/07/14 10:30:13;;;;;;;15.63;8.10;;;31.20;76.70;;;;;;4889689;29;20103;-76
2023/07/14 10:32:48;;;;;;;14.95;7.90;;;31.20;78.00;;;;;;4901726;29;20104;-74
2023/07/14 10:35:20;;;;;;;19.45;9.45;;;31.40;76.10;;;;;;4870002;29;20048;-74
2023/07/14 10:38:05;;;;;;;17.33;9.52;;;31.70;76.10;;;;;;4868636;29;20057;-74
2023/07/14 10:40:41;;;;;;;19.25;10.38;;;31.60;77.80;;;;;;4901146;29;20044;-75
2023/07/14 10:43:41;;;;;;;15.45;9.25;;;31.10;77.50;;;;;;4885676;29;20040;-75
2023/07/14 10:46:24;;;;;;;14.77;9.25;;;30.80;78.10;;;;;;4878673;29;20060;-75
2023/07/14 10:49:13;;;;;;;17.00;8.25;;;31.10;77.20;;;;;;4887805;29;20056;-76
2023/07/14 10:51:50;;;;;;;14.35;8.18;;;31.10;76.10;;;;;;4903035;29;20101;-78
2023/07/14 10:54:23;;;;;;;14.90;9.15;;;31.60;74.40;;;;;;4886203;29;20044;-78
2023/07/14 10:57:24;;;;;;;17.08;9.20;;;31.60;73.90;;;;;;4902874;29;20080;-77
2023/07/14 11:00:09;;;;;;;18.52;9.23;;;31.90;73.90;;;;;;4908064;29;20533;-76
2023/07/14 11:02:42;;;;;;;14.95;8.07;;;32.10;73.20;;;;;;4885377;29;20111;-76
2023/07/14 11:05:16;;;;;;;14.45;9.15;;;32.30;72.30;;;;;;4902168;29;20039;-77
2023/07/14 11:07:44;;;;;;;15.63;9.18;;;32.30;72.90;;;;;;4872006;29;20083;-76
2023/07/14 11:10:28;;;;;;;19.92;9.10;;;32.00;75.70;;;;;;4910947;29;20107;-76
2023/07/14 11:13:18;;;;;;;13.88;9.25;;;32.10;74.60;;;;;;4866018;29;20517;-76
2023/07/14 11:15:52;;;;;;;15.15;9.02;;;32.10;74.40;;;;;;4881557;29;20052;-77
2023/07/14 11:18:54;;;;;;;16.33;8.88;;;31.80;73.70;;;;;;4853362;29;20037;-77
2023/07/14 11:21:44;;;;;;;15.95;9.35;;;31.90;74.50;;;;;;4884682;29;20047;-77
2023/07/14 11:24:23;;;;;;;;;;;32.40;72.20;;;;;;4905212;29;20049;-79
2023/07/14 11:27:32;;;;;;;16.80;9.43;;;31.90;72.50;;;;;;4894414;29;20419;-80
2023/07/14 11:30:21;;;;;;;16.88;9.15;;;32.10;72.50;;;;;;4906622;29;20103;-79
2023/07/14 11:33:38;;;;;;;17.63;9.05;;;31.60;71.80;;;;;;4900543;29;20049;-81
2023/07/14 11:36:26;;;;;;;19.15;8.93;;;31.90;70.70;;;;;;4903742;29;20052;-76
2023/07/14 11:39:33;;;;;;;16.80;8.57;;;32.80;68.80;;;;;;4891219;29;20071;-78
2023/07/14 11:42:05;;;;;;;16.75;8.45;;;33.30;67.80;;;;;;4906040;29;20072;-75
2023/07/14 11:44:53;;;;;;;14.88;9.05;;;33.50;66.40;;;;;;4869939;29;20072;-76
2023/07/14 11:47:35;;;;;;;16.08;8.65;;;33.60;66.10;;;;;;4888731;29;20041;-79
2023/07/14 11:50:23;;;;;;;14.95;8.77;;;33.80;66.00;;;;;;4910662;29;20057;-79
2023/07/14 11:53:06;;;;;;;18.60;8.30;;;33.80;65.40;;;;;;4881752;29;20036;-78
2023/07/14 11:55:39;;;;;;;18.10;8.30;;;33.80;64.80;;;;;;4901119;29;20430;-79
2023/07/14 11:58:13;;;;;;;18.40;8.38;;;33.70;66.30;;;;;;4875521;29;20044;-82
2023/07/14 12:00:46;;;;;;;16.33;8.77;;;33.80;64.20;;;;;;4897173;29;20032;-82
2023/07/14 12:03:29;;;;;;;13.77;8.32;;;33.80;64.50;;;;;;4895505;29;20044;-77
2023/07/14 12:06:40;;;;;;;14.40;8.48;;;33.90;64.40;;;;;;4903076;29;20065;-80
2023/07/14 12:09:18;;;;;;;15.20;8.37;;;34.00;64.90;;;;;;4882132;29;20079;-81
2023/07/14 12:11:56;;;;;;;13.80;7.63;;;34.00;63.50;;;;;;4903800;29;20310;-81
2023/07/14 12:14:48;;;;;;;13.95;8.38;;;34.10;63.80;;;;;;4891189;29;20052;-80
2023/07/14 12:17:43;;;;;;;16.40;8.48;;;34.10;64.70;;;;;;4894078;29;20048;-78
2023/07/14 12:20:13;;;;;;;15.88;8.10;;;34.10;65.00;;;;;;4886424;29;20422;-77
2023/07/14 12:22:44;;;;;;;19.27;8.57;;;34.20;66.20;;;;;;4887478;29;20649;-81
2023/07/14 12:25:14;;;;;;;18.20;9.05;;;34.50;64.00;;;;;;4899846;29;20127;-76
2023/07/14 12:27:54;;;;;;;14.27;8.30;;;34.70;64.40;;;;;;4888630;29;20020;-81
2023/07/14 12:30:42;;;;;;;13.55;7.88;;;34.50;64.00;;;;;;4908198;29;20044;-77
2023/07/14 12:33:30;;;;;;;15.77;8.05;;;34.60;64.30;;;;;;4903395;29;20065;-79
2023/07/14 12:36:42;;;;;;;14.00;8.05;;;34.80;63.60;;;;;;4908014;29;20052;-77
2023/07/14 12:39:32;;;;;;;17.95;8.18;;;34.80;63.40;;;;;;4909670;29;20041;-79
2023/07/14 12:42:09;;;;;;;19.73;9.60;;;34.90;63.80;;;;;;4892524;29;21005;-80
2023/07/14 12:44:58;;;;;;;15.55;8.25;;;34.80;63.70;;;;;;4898092;29;20044;-81
2023/07/14 12:48:11;;;;;;;13.63;8.45;;;34.60;63.60;;;;;;4887484;29;20039;-78
2023/07/14 12:50:40;;;;;;;12.68;8.30;;;34.50;64.70;;;;;;4875187;29;20044;-75
2023/07/14 12:53:16;;;;;;;15.63;8.43;;;34.60;63.80;;;;;;4896099;29;20071;-79
2023/07/14 12:55:45;;;;;;;14.73;7.97;;;34.80;63.50;;;;;;4903169;29;20049;-74
2023/07/14 12:58:22;;;;;;;15.52;8.10;;;34.80;63.30;;;;;;4890763;29;20072;-74
2023/07/14 13:00:55;;;;;;;15.05;9.98;;;34.80;64.30;;;;;;4902917;29;20127;-76
2023/07/14 13:03:24;;;;;;;13.77;8.65;;;35.00;65.10;;;;;;4911939;29;20465;-79
2023/07/14 13:05:53;;;;;;;16.52;8.40;;;35.10;64.50;;;;;;4893436;29;20143;-81
2023/07/14 13:08:25;;;;;;;;;;;35.20;64.40;;;;;;4898337;29;20067;-80
2023/07/14 13:10:57;;;;;;;21.83;9.20;;;35.30;64.70;;;;;;4913309;29;19923;-80
2023/07/14 13:13:41;;;;;;;15.40;8.90;;;35.30;63.60;;;;;;4889501;29;20064;-73
2023/07/14 13:16:18;;;;;;;20.42;8.95;;;35.40;63.50;;;;;;4882777;29;20052;-73
2023/07/14 13:18:56;;;;;;;16.77;8.10;;;35.30;63.40;;;;;;4876602;29;20060;-77